Time;durP1;ratioP1;P1;durP2;ratioP2;P2;SDS_P1;SDS_P2;PMS_P1;PMS_P2;Temp;Humidity;BMP_temperature;BMP_pressure;BME280_temperature;BME280_humidity;BME280_pressure;Samples;Min_cycle;Max_cycle;Signal;HPM_P1;HPM_P2
2022/08/29 00:01:17;;;;;;;1.47;1.00;;;17.10;88.60;;;;;;6101499;23;20556;-78
2022/08/29 00:03:45;;;;;;;1.47;1.00;;;17.10;88.90;;;;;;6127749;23;20797;-77
2022/08/29 00:06:16;;;;;;;1.47;0.90;;;17.10;88.80;;;;;;6101187;23;20449;-77
2022/08/29 00:08:43;;;;;;;1.43;1.00;;;17.00;88.60;;;;;;6119713;23;20422;-78
2022/08/29 00:11:12;;;;;;;1.50;1.00;;;17.00;88.60;;;;;;6092584;23;20509;-78
2022/08/29 00:13:39;;;;;;;1.47;0.90;;;17.00;88.70;;;;;;6129934;23;20415;-77
2022/08/29 00:16:08;;;;;;;1.47;1.00;;;17.00;88.70;;;;;;6091833;23;20431;-77
2022/08/29 00:18:36;;;;;;;1.50;1.00;;;17.00;88.90;;;;;;6131604;23;20427;-77
2022/08/29 00:21:07;;;;;;;1.50;0.93;;;17.00;89.10;;;;;;6093591;23;20741;-77
2022/08/29 00:23:35;;;;;;;1.47;1.00;;;17.00;89.10;;;;;;6132041;23;20447;-79
2022/08/29 00:26:02;;;;;;;1.43;0.90;;;16.90;89.30;;;;;;6100754;23;20422;-79
2022/08/29 00:28:32;;;;;;;1.47;1.00;;;16.90;89.30;;;;;;6123202;23;20454;-79
2022/08/29 00:31:00;;;;;;;1.50;0.90;;;16.90;89.00;;;;;;6088865;23;20434;-78
2022/08/29 00:33:29;;;;;;;1.43;0.90;;;16.90;88.90;;;;;;6121948;23;20424;-79
2022/08/29 00:35:59;;;;;;;1.47;1.00;;;16.90;88.90;;;;;;6088665;23;20423;-78
2022/08/29 00:38:31;;;;;;;1.43;1.00;;;16.90;89.10;;;;;;6131752;23;20485;-78
2022/08/29 00:40:59;;;;;;;1.47;0.90;;;16.80;89.00;;;;;;6089022;23;20422;-79
2022/08/29 00:43:34;;;;;;;1.50;1.00;;;16.80;89.50;;;;;;6128455;23;20423;-79
2022/08/29 00:46:11;;;;;;;1.50;1.00;;;16.70;89.40;;;;;;6096046;23;20425;-78
2022/08/29 00:48:40;;;;;;;1.47;0.97;;;16.70;89.20;;;;;;6112747;23;20509;-78
2022/08/29 00:51:13;;;;;;;1.47;1.00;;;16.60;89.70;;;;;;6083593;23;20434;-79
2022/08/29 00:53:43;;;;;;;1.50;0.90;;;16.60;89.80;;;;;;6110729;23;20463;-79
2022/08/29 00:56:14;;;;;;;1.50;0.90;;;16.50;90.30;;;;;;6082711;23;20507;-78
2022/08/29 00:58:46;;;;;;;1.50;1.00;;;16.50;89.50;;;;;;6110325;23;20917;-79
2022/08/29 01:01:14;;;;;;;1.43;0.90;;;16.40;89.60;;;;;;6081966;23;20524;-78
2022/08/29 01:03:41;;;;;;;1.50;1.00;;;16.40;90.10;;;;;;6109985;23;20446;-78
2022/08/29 01:06:09;;;;;;;1.47;1.00;;;16.30;90.20;;;;;;6083240;23;20473;-78
2022/08/29 01:08:36;;;;;;;1.47;1.00;;;16.30;90.50;;;;;;6111748;23;20426;-79
2022/08/29 01:13:50;;;;;;;1.47;0.90;;;16.20;90.70;;;;;;6119379;23;20431;-79
2022/08/29 01:16:20;;;;;;;1.43;0.93;;;16.20;91.40;;;;;;6085503;23;20912;-79
2022/08/29 01:18:51;;;;;;;1.43;0.90;;;16.20;91.10;;;;;;6112084;23;20451;-78
2022/08/29 01:21:25;;;;;;;1.50;0.90;;;16.10;91.60;;;;;;6089292;23;20453;-79
2022/08/29 01:24:01;;;;;;;1.50;0.90;;;16.10;91.30;;;;;;6110366;23;20534;-79
2022/08/29 01:26:31;;;;;;;1.50;1.00;;;16.10;91.60;;;;;;6095966;23;20453;-78
2022/08/29 01:28:59;;;;;;;1.43;1.00;;;16.00;92.10;;;;;;6108993;23;20423;-79
2022/08/29 01:31:39;;;;;;;1.50;1.00;;;16.00;91.40;;;;;;6087887;23;20445;-79
2022/08/29 01:34:16;;;;;;;1.50;1.00;;;15.90;91.80;;;;;;6121601;23;20485;-78
2022/08/29 01:36:49;;;;;;;1.50;1.00;;;15.90;91.30;;;;;;6079627;23;20461;-78
2022/08/29 01:39:17;;;;;;;1.43;0.90;;;15.90;91.70;;;;;;6101640;23;20648;-79
2022/08/29 01:41:46;;;;;;;1.47;1.00;;;15.90;91.90;;;;;;6090809;23;20450;-78
2022/08/29 01:44:17;;;;;;;1.50;1.00;;;15.80;92.00;;;;;;6115525;23;20446;-78
2022/08/29 01:46:44;;;;;;;1.50;1.00;;;15.80;91.50;;;;;;6091825;23;20847;-78
2022/08/29 01:49:16;;;;;;;1.47;1.00;;;15.80;92.10;;;;;;6106462;23;20422;-77
2022/08/29 01:51:43;;;;;;;1.50;1.00;;;15.70;92.40;;;;;;6097301;23;20453;-77
2022/08/29 01:54:12;;;;;;;1.50;1.00;;;15.70;92.80;;;;;;6107656;23;20422;-77
2022/08/29 01:56:43;;;;;;;1.50;0.90;;;15.70;92.70;;;;;;6097248;23;20491;-77
2022/08/29 01:59:17;;;;;;;1.50;0.97;;;15.60;93.60;;;;;;6107833;23;20437;-78
2022/08/29 02:01:48;;;;;;;1.50;1.00;;;15.60;92.70;;;;;;6092158;23;20446;-78
2022/08/29 02:04:16;;;;;;;1.50;0.90;;;15.60;92.90;;;;;;6106343;23;20434;-78
2022/08/29 02:06:44;;;;;;;1.47;1.00;;;15.50;92.50;;;;;;6096727;23;20460;-77
2022/08/29 02:09:11;;;;;;;1.50;1.00;;;15.50;92.50;;;;;;6109390;23;20973;-77
2022/08/29 02:11:39;;;;;;;1.50;1.00;;;15.50;93.00;;;;;;6093628;23;20524;-77
2022/08/29 02:14:07;;;;;;;1.47;1.00;;;15.50;93.60;;;;;;6108898;23;20820;-78
2022/08/29 02:16:35;;;;;;;1.50;1.00;;;15.50;94.80;;;;;;6089593;23;20828;-78
2022/08/29 02:19:03;;;;;;;1.47;1.00;;;15.40;94.70;;;;;;6108244;23;20434;-77
2022/08/29 02:21:31;;;;;;;1.50;1.00;;;15.40;94.10;;;;;;6095747;23;20457;-77
2022/08/29 02:24:01;;;;;;;1.50;1.00;;;15.40;95.20;;;;;;6117499;23;20433;-77
2022/08/29 02:26:28;;;;;;;1.50;1.00;;;15.40;94.20;;;;;;6087642;23;20465;-77
2022/08/29 02:28:56;;;;;;;1.50;1.07;;;15.40;94.00;;;;;;6109234;23;20941;-77
2022/08/29 02:31:26;;;;;;;1.43;1.00;;;15.30;93.70;;;;;;6087782;23;20473;-77
2022/08/29 02:33:55;;;;;;;1.50;1.03;;;15.30;93.70;;;;;;6119081;23;20736;-78
2022/08/29 02:36:22;;;;;;;1.50;0.93;;;15.30;94.90;;;;;;6086820;23;20857;-77
2022/08/29 02:38:50;;;;;;;1.50;1.00;;;15.30;94.10;;;;;;6110916;23;20422;-77
2022/08/29 02:41:17;;;;;;;1.50;1.00;;;15.30;94.20;;;;;;6093786;23;20449;-78
2022/08/29 02:43:44;;;;;;;1.50;1.00;;;15.30;94.40;;;;;;6110516;23;20442;-77
2022/08/29 02:46:16;;;;;;;1.50;1.00;;;15.30;94.20;;;;;;6084589;23;20445;-77
2022/08/29 02:48:44;;;;;;;1.50;1.00;;;15.20;95.10;;;;;;6121691;23;20399;-78
2022/08/29 02:51:19;;;;;;;1.50;1.00;;;15.20;94.60;;;;;;6092730;23;20582;-77
2022/08/29 02:53:46;;;;;;;1.50;1.00;;;15.20;95.70;;;;;;6120496;23;20465;-77
2022/08/29 02:56:14;;;;;;;1.50;1.00;;;15.20;95.80;;;;;;6093337;23;21011;-78
2022/08/29 02:58:42;;;;;;;1.47;1.00;;;15.10;96.20;;;;;;6111903;23;20429;-78
2022/08/29 03:01:09;;;;;;;1.50;1.00;;;15.10;96.70;;;;;;6083332;23;21149;-78
2022/08/29 03:03:36;;;;;;;1.43;1.00;;;15.20;96.60;;;;;;6121384;23;20447;-77
2022/08/29 03:06:04;;;;;;;1.50;1.00;;;15.10;96.50;;;;;;6083523;23;20442;-77
2022/08/29 03:08:33;;;;;;;1.50;1.17;;;15.10;96.10;;;;;;6115102;23;20478;-77
2022/08/29 03:11:00;;;;;;;1.50;1.07;;;15.10;96.00;;;;;;6082664;23;20518;-78
2022/08/29 03:13:27;;;;;;;1.47;1.00;;;15.10;95.60;;;;;;6123646;23;20446;-77
2022/08/29 03:15:55;;;;;;;1.50;1.00;;;15.10;95.50;;;;;;6080814;23;20422;-78
2022/08/29 03:18:22;;;;;;;1.50;1.00;;;15.10;95.50;;;;;;6128924;23;20470;-77
2022/08/29 03:20:50;;;;;;;1.50;1.03;;;15.10;95.90;;;;;;6082493;23;20490;-77
2022/08/29 03:23:18;;;;;;;1.47;0.90;;;15.10;95.70;;;;;;6126234;23;20423;-78
2022/08/29 03:25:47;;;;;;;1.43;1.00;;;15.10;95.80;;;;;;6091970;23;20442;-78
2022/08/29 03:28:14;;;;;;;1.47;1.00;;;15.00;96.00;;;;;;6116818;23;20450;-78
2022/08/29 03:30:42;;;;;;;1.50;1.00;;;15.00;96.30;;;;;;6094898;23;20449;-78
2022/08/29 03:33:09;;;;;;;1.43;1.00;;;15.00;96.30;;;;;;6098568;23;20457;-77
2022/08/29 03:35:36;;;;;;;1.50;1.00;;;15.00;96.40;;;;;;6094032;23;20419;-77
2022/08/29 03:38:04;;;;;;;1.50;1.10;;;15.00;96.40;;;;;;6101986;23;20457;-78
2022/08/29 03:40:31;;;;;;;1.40;1.00;;;15.00;96.70;;;;;;6107719;23;20786;-78
2022/08/29 03:43:02;;;;;;;1.50;1.00;;;14.90;96.70;;;;;;6101515;23;20532;-78
2022/08/29 03:45:29;;;;;;;1.50;1.00;;;14.90;96.50;;;;;;6103390;23;20454;-77
2022/08/29 03:47:56;;;;;;;1.50;1.00;;;14.90;97.10;;;;;;6103526;23;20481;-77
2022/08/29 03:50:23;;;;;;;1.47;0.90;;;14.90;97.00;;;;;;6095022;23;20422;-76
2022/08/29 03:52:51;;;;;;;1.47;1.00;;;14.90;97.20;;;;;;6102187;23;20485;-77
2022/08/29 03:55:19;;;;;;;1.47;1.00;;;14.80;97.20;;;;;;6103467;23;20450;-77
2022/08/29 03:57:47;;;;;;;1.50;1.00;;;14.80;97.60;;;;;;6104417;23;21339;-77
2022/08/29 04:00:17;;;;;;;1.50;1.00;;;14.80;97.30;;;;;;6105122;23;20461;-78
2022/08/29 04:02:46;;;;;;;1.47;1.00;;;14.80;97.40;;;;;;6102490;23;21029;-77
2022/08/29 04:05:16;;;;;;;1.47;1.00;;;14.80;97.80;;;;;;6106002;23;20450;-78
2022/08/29 04:07:49;;;;;;;1.50;1.00;;;14.80;97.70;;;;;;6104298;23;20524;-79
2022/08/29 04:10:19;;;;;;;1.50;1.00;;;14.70;97.50;;;;;;6096494;23;20442;-79
2022/08/29 04:12:46;;;;;;;1.50;1.00;;;14.70;97.70;;;;;;6103226;23;20454;-78
2022/08/29 04:15:15;;;;;;;1.50;1.00;;;14.70;98.00;;;;;;6094421;23;20426;-77
2022/08/29 04:17:43;;;;;;;1.50;1.00;;;14.70;97.80;;;;;;6102523;23;20453;-77
2022/08/29 04:20:12;;;;;;;1.50;1.00;;;14.70;98.00;;;;;;6095712;23;20440;-78
2022/08/29 04:22:41;;;;;;;1.50;1.00;;;14.70;97.90;;;;;;6103778;23;20465;-76
2022/08/29 04:25:13;;;;;;;1.50;1.00;;;14.60;97.90;;;;;;6105923;23;20441;-78
2022/08/29 04:27:41;;;;;;;1.50;1.00;;;14.60;98.10;;;;;;6103491;23;21024;-78
2022/08/29 04:30:11;;;;;;;1.50;1.00;;;14.60;98.20;;;;;;6099000;23;20454;-77
2022/08/29 04:32:42;;;;;;;1.50;1.00;;;14.60;98.20;;;;;;6105046;23;20449;-78
2022/08/29 04:35:17;;;;;;;1.50;1.00;;;14.60;98.20;;;;;;6099314;23;20442;-78
2022/08/29 04:37:45;;;;;;;1.50;1.00;;;14.50;98.20;;;;;;6109097;23;20453;-79
2022/08/29 04:40:24;;;;;;;1.50;1.00;;;14.50;98.20;;;;;;6106664;23;21067;-78
2022/08/29 04:42:52;;;;;;;1.50;1.00;;;14.50;98.20;;;;;;6103251;23;20480;-79
2022/08/29 04:45:22;;;;;;;1.50;1.10;;;14.50;98.20;;;;;;6107028;23;20505;-78
2022/08/29 04:47:53;;;;;;;1.50;1.10;;;14.50;98.20;;;;;;6106832;23;21155;-78
2022/08/29 04:50:26;;;;;;;1.50;1.00;;;14.50;98.20;;;;;;6098487;23;20510;-78
2022/08/29 04:52:54;;;;;;;1.50;1.00;;;14.50;98.20;;;;;;6107177;23;21030;-77
2022/08/29 04:55:58;;;;;;;1.50;1.00;;;14.50;98.20;;;;;;6098878;23;20438;-78
2022/08/29 05:01:38;;;;;;;1.50;1.00;;;14.50;98.20;;;;;;6006077;23;20456;-79
2022/08/29 05:04:37;;;;;;;1.50;1.00;;;14.50;98.20;;;;;;6119416;23;20454;-78
2022/08/29 05:07:41;;;;;;;1.50;1.00;;;14.60;98.20;;;;;;6103681;23;20460;-79
2022/08/29 05:10:21;;;;;;;1.47;1.00;;;14.60;98.20;;;;;;6078517;23;20436;-79
2022/08/29 05:16:04;;;;;;;1.50;1.00;;;14.60;98.20;;;;;;6089027;23;20446;-79
2022/08/29 05:18:49;;;;;;;;;;;;;;;;;;;;;
2022/08/29 05:21:56;;;;;;;1.47;1.00;;;14.70;98.20;;;;;;6101570;23;20469;-78
2022/08/29 05:25:08;;;;;;;1.50;1.00;;;14.70;98.20;;;;;;6113818;23;20433;-78
2022/08/29 05:27:36;;;;;;;1.50;1.10;;;14.80;98.20;;;;;;6049084;23;20887;-78
2022/08/29 05:30:28;;;;;;;1.47;1.00;;;14.80;98.20;;;;;;6163586;23;20484;-80
2022/08/29 05:33:17;;;;;;;1.50;1.00;;;14.80;98.20;;;;;;6147931;23;20437;-79
2022/08/29 05:45:14;;;;;;;1.47;1.00;;;15.10;98.20;;;;;;6105423;23;20945;-79
2022/08/29 05:51:11;;;;;;;1.50;1.00;;;15.20;98.20;;;;;;6085201;23;20795;-77
2022/08/29 05:54:04;;;;;;;1.50;1.00;;;15.20;98.20;;;;;;6133673;23;20444;-77
2022/08/29 05:56:43;;;;;;;1.43;1.00;;;15.30;98.20;;;;;;6105468;23;20828;-77
2022/08/29 05:59:21;;;;;;;1.50;1.00;;;15.40;98.20;;;;;;6128025;23;20403;-77
2022/08/29 06:01:55;;;;;;;1.43;1.00;;;15.60;98.20;;;;;;6101400;23;20804;-77
2022/08/29 06:04:35;;;;;;;1.47;1.00;;;15.70;98.20;;;;;;6115049;23;20571;-78
2022/08/29 06:14:18;;;;;;;1.50;1.00;;;16.10;98.20;;;;;;6054423;23;20831;-78
2022/08/29 06:41:59;;;;;;;1.47;0.90;;;17.40;93.30;;;;;;5810799;24;20455;-77
2022/08/29 06:44:59;;;;;;;1.50;1.00;;;17.30;93.50;;;;;;5859561;24;20543;-78
2022/08/29 06:48:34;;;;;;;1.47;0.90;;;17.30;93.50;;;;;;5878130;24;20721;-78
2022/08/29 06:58:11;;;;;;;1.50;0.93;;;17.30;93.10;;;;;;5840215;23;20455;-78
2022/08/29 07:00:40;;;;;;;1.47;0.90;;;17.30;93.30;;;;;;6074268;23;20437;-77
2022/08/29 07:03:21;;;;;;;1.50;0.90;;;17.40;93.80;;;;;;6071343;23;20459;-77
2022/08/29 07:05:57;;;;;;;1.50;1.00;;;17.50;93.50;;;;;;6093512;23;20474;-78
2022/08/29 07:08:30;;;;;;;1.50;0.90;;;17.60;92.70;;;;;;6128471;23;20450;-78
2022/08/29 07:11:30;;;;;;;1.50;0.93;;;17.80;92.70;;;;;;6092876;23;20461;-76
2022/08/29 07:14:23;;;;;;;1.50;0.90;;;17.90;92.30;;;;;;6120523;23;21036;-78
2022/08/29 07:16:51;;;;;;;1.50;0.90;;;18.10;92.00;;;;;;6097217;23;20461;-77
2022/08/29 07:23:56;;;;;;;1.43;0.90;;;18.80;90.80;;;;;;5939570;24;20457;-78
2022/08/29 07:26:24;;;;;;;1.50;0.90;;;19.10;89.60;;;;;;5950692;23;20461;-77
2022/08/29 07:29:00;;;;;;;1.43;0.90;;;19.40;89.10;;;;;;5932804;23;20422;-77
2022/08/29 07:31:27;;;;;;;1.47;0.90;;;19.70;89.10;;;;;;6051983;23;20968;-77
2022/08/29 07:33:57;;;;;;;1.50;0.90;;;19.90;88.40;;;;;;6111780;23;20447;-77
2022/08/29 07:39:33;;;;;;;1.50;0.90;;;20.40;86.10;;;;;;6107898;23;20426;-76
2022/08/29 07:42:38;;;;;;;1.50;0.90;;;20.50;84.80;;;;;;6090455;23;20449;-77
2022/08/29 07:45:47;;;;;;;1.50;0.90;;;20.70;84.90;;;;;;6021255;23;20551;-78
2022/08/29 07:55:12;;;;;;;1.50;0.90;;;21.30;83.30;;;;;;5965303;24;20423;-77
2022/08/29 07:57:47;;;;;;;1.50;0.90;;;21.50;83.10;;;;;;5973355;23;20475;-77
2022/08/29 08:00:14;;;;;;;1.47;0.90;;;21.60;82.90;;;;;;6071145;23;20421;-75
2022/08/29 08:02:46;;;;;;;1.50;0.90;;;21.60;81.70;;;;;;6101911;23;20919;-77
2022/08/29 08:05:20;;;;;;;1.50;0.90;;;21.60;81.50;;;;;;6103170;23;20430;-77
2022/08/29 08:07:53;;;;;;;1.47;0.90;;;21.60;82.20;;;;;;6106329;23;21099;-77
2022/08/29 08:10:24;;;;;;;1.50;0.90;;;21.70;81.80;;;;;;6095096;23;20441;-77
2022/08/29 08:13:09;;;;;;;1.50;0.90;;;21.80;82.10;;;;;;6103479;23;20460;-76
2022/08/29 08:15:46;;;;;;;1.50;0.90;;;22.10;81.50;;;;;;6105639;23;20422;-78
2022/08/29 08:24:53;;;;;;;1.47;0.90;;;22.50;79.60;;;;;;5993693;23;20508;-78
2022/08/29 08:27:25;;;;;;;1.40;0.90;;;22.50;79.20;;;;;;5994902;23;20477;-78
2022/08/29 08:29:54;;;;;;;1.43;0.90;;;22.60;79.50;;;;;;6075651;23;20513;-78
2022/08/29 08:32:21;;;;;;;1.47;0.87;;;22.80;78.80;;;;;;6093851;23;20481;-77
2022/08/29 08:34:55;;;;;;;1.47;0.83;;;22.90;77.90;;;;;;6105146;23;20434;-77
2022/08/29 08:37:35;;;;;;;1.43;0.90;;;23.10;76.80;;;;;;6104984;23;20844;-77
2022/08/29 08:43:03;;;;;;;1.43;0.90;;;23.50;74.30;;;;;;6093883;23;20457;-78
2022/08/29 08:45:57;;;;;;;1.43;0.90;;;23.70;74.60;;;;;;6097341;23;20498;-78
2022/08/29 08:48:29;;;;;;;1.50;0.90;;;23.80;74.10;;;;;;6078883;23;20426;-78
2022/08/29 08:57:35;;;;;;;1.47;0.90;;;24.10;71.80;;;;;;5921027;23;20521;-78
2022/08/29 09:00:11;;;;;;;1.47;0.90;;;24.10;72.60;;;;;;6080578;23;20426;-76
2022/08/29 09:03:09;;;;;;;1.43;0.90;;;24.00;72.60;;;;;;6099956;23;20431;-77
2022/08/29 09:05:55;;;;;;;1.50;0.90;;;24.10;73.10;;;;;;6106129;23;20793;-78
2022/08/29 09:08:34;;;;;;;1.47;0.90;;;23.90;73.60;;;;;;6081002;23;20509;-77
2022/08/29 09:11:04;;;;;;;1.47;0.80;;;24.00;73.50;;;;;;6096128;23;20415;-76
2022/08/29 09:13:44;;;;;;;1.43;0.80;;;24.00;73.50;;;;;;6128553;23;20740;-76
2022/08/29 09:16:22;;;;;;;1.43;0.80;;;24.10;72.50;;;;;;6096262;23;20791;-76
2022/08/29 09:18:50;;;;;;;1.43;0.90;;;24.20;72.50;;;;;;6125132;23;20675;-76
2022/08/29 09:21:21;;;;;;;1.50;0.90;;;24.20;72.80;;;;;;6088775;23;20469;-77
2022/08/29 09:23:51;;;;;;;1.50;0.90;;;24.40;72.80;;;;;;6124955;23;20421;-79
2022/08/29 09:26:22;;;;;;;1.47;0.80;;;24.80;72.80;;;;;;6094338;23;20441;-75
2022/08/29 09:28:50;;;;;;;1.47;0.80;;;25.00;70.40;;;;;;6094264;23;20426;-76
2022/08/29 09:31:24;;;;;;;1.47;0.80;;;25.20;70.00;;;;;;6090981;23;20453;-76
2022/08/29 09:33:55;;;;;;;1.50;0.80;;;25.30;70.50;;;;;;6115618;23;20441;-78
2022/08/29 09:36:54;;;;;;;1.50;0.90;;;25.40;70.40;;;;;;6095628;23;20441;-77
2022/08/29 09:39:27;;;;;;;1.50;0.80;;;25.60;68.40;;;;;;6122780;23;20434;-78
2022/08/29 09:41:58;;;;;;;1.50;0.80;;;25.70;69.20;;;;;;6099041;23;21078;-79
2022/08/29 09:44:29;;;;;;;1.50;0.80;;;25.90;69.00;;;;;;6118457;23;20425;-80
2022/08/29 09:47:11;;;;;;;1.47;0.83;;;26.00;69.00;;;;;;6096381;23;20465;-79
2022/08/29 09:49:40;;;;;;;1.40;0.90;;;26.00;68.60;;;;;;6105631;23;20415;-79
2022/08/29 09:54:57;;;;;;;1.47;0.80;;;25.90;69.00;;;;;;6108347;23;20404;-78
2022/08/29 09:57:27;;;;;;;1.40;0.80;;;26.10;67.60;;;;;;6100691;23;20449;-79
2022/08/29 10:00:12;;;;;;;1.40;0.83;;;26.20;68.60;;;;;;6098182;23;20430;-77
2022/08/29 10:02:48;;;;;;;1.47;0.80;;;26.40;68.50;;;;;;6090633;23;20501;-78
2022/08/29 10:05:34;;;;;;;1.50;0.80;;;26.60;67.30;;;;;;6092556;23;20904;-79
2022/08/29 10:08:04;;;;;;;1.50;0.80;;;26.60;67.50;;;;;;6104086;23;20945;-78
2022/08/29 10:10:37;;;;;;;1.50;0.80;;;26.70;67.50;;;;;;6096705;23;20426;-76
2022/08/29 10:13:10;;;;;;;1.47;0.80;;;26.80;66.30;;;;;;6102237;23;20452;-78
2022/08/29 10:25:42;;;;;;;1.50;0.90;;;26.40;66.40;;;;;;6136175;23;20505;-77
2022/08/29 10:48:06;;;;;;;1.40;0.90;;;26.10;66.30;;;;;;6152012;23;20579;-79
2022/08/29 10:58:01;;;;;;;1.47;0.80;;;27.30;65.40;;;;;;5800627;23;21449;-78
2022/08/29 11:01:27;;;;;;;1.40;0.80;;;27.60;64.50;;;;;;6066905;23;20434;-78
2022/08/29 11:04:30;;;;;;;;;;;;;;;;;;;;;
2022/08/29 11:13:45;;;;;;;1.43;0.80;;;27.90;64.30;;;;;;6062304;23;20890;-78
2022/08/29 11:16:49;;;;;;;1.47;0.80;;;28.20;63.90;;;;;;6035275;23;20496;-78
2022/08/29 11:19:31;;;;;;;1.43;0.80;;;28.20;63.50;;;;;;6009992;23;20776;-78
2022/08/29 11:22:25;;;;;;;1.43;0.80;;;28.00;62.60;;;;;;6019018;23;20936;-77
2022/08/29 11:25:40;;;;;;;1.50;0.80;;;28.20;63.40;;;;;;6022736;23;20424;-79
2022/08/29 11:28:24;;;;;;;1.43;0.80;;;28.10;61.40;;;;;;6012034;23;20477;-78
2022/08/29 11:31:21;;;;;;;1.43;0.80;;;28.20;61.00;;;;;;6021313;23;20425;-77
2022/08/29 11:44:48;;;;;;;;;;;;;;;;;;;;;
2022/08/29 11:50:22;;;;;;;1.47;0.80;;;28.80;61.30;;;;;;6108817;23;20527;-78
2022/08/29 11:52:57;;;;;;;1.43;0.80;;;29.00;60.00;;;;;;6130159;23;20539;-79
2022/08/29 11:55:41;;;;;;;1.43;0.80;;;29.20;59.70;;;;;;6134649;23;20957;-79
2022/08/29 11:58:44;;;;;;;1.43;0.80;;;29.30;58.90;;;;;;6084496;23;20461;-78
2022/08/29 12:02:02;;;;;;;1.40;0.80;;;29.10;59.90;;;;;;6116185;23;20978;-79
2022/08/29 12:04:52;;;;;;;1.47;0.80;;;29.30;59.30;;;;;;6072964;23;21028;-77
2022/08/29 12:07:42;;;;;;;1.50;0.80;;;29.40;58.60;;;;;;6054899;23;20458;-75
2022/08/29 12:10:27;;;;;;;1.60;1.30;;;29.40;58.60;;;;;;6101767;23;20433;-77
2022/08/29 12:12:56;;;;;;;1.50;0.80;;;29.40;58.60;;;;;;6104994;23;20449;-77
2022/08/29 12:15:59;;;;;;;1.47;0.80;;;29.30;59.60;;;;;;6106209;23;20477;-79
2022/08/29 12:18:35;;;;;;;1.47;0.80;;;29.20;59.60;;;;;;6080867;23;20430;-77
2022/08/29 12:21:59;;;;;;;1.47;0.80;;;28.90;60.20;;;;;;6094532;23;20438;-78
2022/08/29 12:25:11;;;;;;;1.40;0.80;;;28.50;60.10;;;;;;6081703;23;20457;-79
2022/08/29 12:28:02;;;;;;;1.43;0.80;;;28.20;59.90;;;;;;5998900;23;20448;-79
2022/08/29 12:30:36;;;;;;;1.47;0.80;;;27.80;61.30;;;;;;6107805;23;20414;-78
2022/08/29 12:33:23;;;;;;;1.60;1.20;;;27.60;61.10;;;;;;6105004;23;20999;-80
2022/08/29 12:39:54;;;;;;;1.43;0.80;;;27.70;61.10;;;;;;5880903;24;20432;-78
2022/08/29 12:42:31;;;;;;;1.47;0.90;;;27.80;61.70;;;;;;5970345;23;20586;-78
2022/08/29 12:45:02;;;;;;;1.40;0.80;;;28.00;62.70;;;;;;6067987;23;20448;-78
2022/08/29 12:47:46;;;;;;;1.43;0.80;;;28.20;61.50;;;;;;6105241;23;20444;-78
2022/08/29 12:50:18;;;;;;;1.47;0.80;;;28.00;61.00;;;;;;6099019;23;20444;-78
2022/08/29 12:53:03;;;;;;;1.47;0.80;;;28.00;62.00;;;;;;6107921;23;20504;-79
2022/08/29 12:55:40;;;;;;;1.47;0.80;;;28.00;61.90;;;;;;6110192;23;20434;-77
2022/08/29 12:58:09;;;;;;;1.47;0.80;;;28.00;62.70;;;;;;6108415;23;20448;-77
2022/08/29 13:00:37;;;;;;;1.47;0.80;;;28.00;62.40;;;;;;6109526;23;20424;-78
2022/08/29 13:03:09;;;;;;;1.47;0.80;;;27.90;61.90;;;;;;6106414;23;20823;-77
2022/08/29 13:05:39;;;;;;;1.47;0.80;;;27.80;61.50;;;;;;6099139;23;20416;-78
2022/08/29 13:08:10;;;;;;;1.47;0.80;;;27.70;62.20;;;;;;6098520;23;20454;-79
2022/08/29 13:10:51;;;;;;;1.47;0.80;;;27.70;61.40;;;;;;6107523;23;20465;-76
2022/08/29 13:13:22;;;;;;;1.47;0.80;;;27.70;62.70;;;;;;6107887;23;20482;-77
2022/08/29 13:15:50;;;;;;;1.47;0.80;;;28.00;61.30;;;;;;6110115;23;20405;-78
2022/08/29 13:18:18;;;;;;;1.43;0.80;;;28.20;60.90;;;;;;6108306;23;20439;-77
2022/08/29 13:21:22;;;;;;;1.40;0.80;;;28.20;59.40;;;;;;6108142;23;20465;-78
2022/08/29 13:24:01;;;;;;;1.47;0.83;;;28.30;60.30;;;;;;6083169;23;20827;-77
2022/08/29 13:26:32;;;;;;;1.47;0.80;;;28.40;59.80;;;;;;6097666;23;20449;-78
2022/08/29 13:29:18;;;;;;;1.43;0.80;;;28.50;59.80;;;;;;6122125;23;20925;-77
2022/08/29 13:32:11;;;;;;;1.47;0.80;;;28.60;60.40;;;;;;6100861;23;20580;-79
2022/08/29 13:34:39;;;;;;;1.40;0.80;;;28.70;59.40;;;;;;6115636;23;20415;-78
2022/08/29 13:37:42;;;;;;;1.47;0.80;;;28.80;58.60;;;;;;6100020;23;20528;-77
2022/08/29 13:40:33;;;;;;;1.43;0.80;;;28.70;59.50;;;;;;6110091;23;20426;-77
2022/08/29 13:43:03;;;;;;;1.40;0.80;;;28.80;58.30;;;;;;6106303;23;20463;-77
2022/08/29 13:45:44;;;;;;;1.50;0.80;;;29.00;58.70;;;;;;6098649;23;20442;-77
2022/08/29 13:48:22;;;;;;;1.47;0.80;;;29.20;58.70;;;;;;6107494;23;20940;-77
2022/08/29 13:51:06;;;;;;;1.40;0.80;;;29.20;57.10;;;;;;6109937;23;20756;-79
2022/08/29 13:53:49;;;;;;;1.43;0.80;;;29.20;57.60;;;;;;6080634;23;20426;-78
2022/08/29 13:56:27;;;;;;;1.40;0.80;;;29.10;58.30;;;;;;6069796;23;20449;-78
2022/08/29 13:59:01;;;;;;;1.40;0.80;;;29.00;59.20;;;;;;6095445;23;20439;-78
2022/08/29 14:01:28;;;;;;;1.40;0.80;;;29.10;58.00;;;;;;6072271;23;20439;-79
2022/08/29 14:03:56;;;;;;;1.40;0.80;;;29.00;58.20;;;;;;6071983;23;20455;-78
2022/08/29 14:06:26;;;;;;;1.43;0.83;;;28.90;58.40;;;;;;6073255;23;21037;-79
2022/08/29 14:08:55;;;;;;;1.43;0.90;;;28.80;58.80;;;;;;6083581;23;20497;-79
2022/08/29 14:11:22;;;;;;;1.43;0.80;;;28.80;58.90;;;;;;6065316;23;20469;-79
2022/08/29 14:13:50;;;;;;;1.40;0.80;;;28.70;57.30;;;;;;6098290;23;20458;-79
2022/08/29 14:16:20;;;;;;;1.43;0.80;;;28.70;58.60;;;;;;6064606;23;20450;-80
2022/08/29 14:18:48;;;;;;;1.40;0.80;;;28.60;57.10;;;;;;6099090;23;20455;-78
2022/08/29 14:21:18;;;;;;;1.43;0.80;;;28.60;58.20;;;;;;6056080;23;20445;-77
2022/08/29 14:26:34;;;;;;;1.43;0.80;;;28.40;57.10;;;;;;6055648;23;20461;-77
2022/08/29 14:29:02;;;;;;;1.47;0.87;;;28.50;57.20;;;;;;6092286;23;20455;-76
2022/08/29 14:31:31;;;;;;;1.47;0.90;;;28.40;56.40;;;;;;6069051;23;20478;-77
2022/08/29 14:33:59;;;;;;;1.40;0.80;;;28.50;57.50;;;;;;6092434;23;20461;-76
2022/08/29 14:36:26;;;;;;;1.40;0.80;;;28.50;57.70;;;;;;6069893;23;20578;-78
2022/08/29 14:38:55;;;;;;;1.40;0.80;;;28.50;57.60;;;;;;6083694;23;20419;-75
2022/08/29 14:41:41;;;;;;;1.43;0.80;;;28.60;58.10;;;;;;6068048;23;20497;-77
2022/08/29 14:44:12;;;;;;;1.47;0.80;;;28.50;57.90;;;;;;6088945;23;20456;-77
2022/08/29 14:46:42;;;;;;;1.40;0.80;;;28.50;57.80;;;;;;6067627;23;20777;-77
2022/08/29 14:49:09;;;;;;;1.43;0.80;;;28.50;56.30;;;;;;6078670;23;20511;-74
2022/08/29 14:51:37;;;;;;;1.50;0.80;;;28.50;56.80;;;;;;6059203;23;20864;-75
2022/08/29 14:54:05;;;;;;;1.40;0.80;;;28.60;56.90;;;;;;6076098;23;20459;-76
2022/08/29 14:56:34;;;;;;;1.40;0.80;;;28.60;57.50;;;;;;6057466;23;20481;-75
2022/08/29 14:59:02;;;;;;;1.47;0.80;;;28.70;57.50;;;;;;6071322;23;21085;-74
2022/08/29 15:01:29;;;;;;;1.43;0.80;;;28.70;55.40;;;;;;6058298;23;20454;-76
2022/08/29 15:03:58;;;;;;;1.47;0.80;;;28.60;56.30;;;;;;6047631;23;20461;-76
2022/08/29 15:06:25;;;;;;;1.40;0.80;;;28.50;56.60;;;;;;6057294;23;20619;-76
2022/08/29 15:08:53;;;;;;;4.97;2.07;;;28.40;56.10;;;;;;6055472;23;20534;-77
2022/08/29 15:11:20;;;;;;;1.40;0.80;;;28.20;56.50;;;;;;6059063;23;20450;-76
2022/08/29 15:13:47;;;;;;;1.43;0.80;;;28.10;57.30;;;;;;6073213;23;20966;-76
2022/08/29 15:16:16;;;;;;;1.43;0.80;;;28.00;57.00;;;;;;6052709;23;21061;-77
2022/08/29 15:18:43;;;;;;;1.47;0.80;;;27.90;57.40;;;;;;6087235;23;20430;-75
2022/08/29 15:21:12;;;;;;;1.47;0.80;;;27.90;57.70;;;;;;6067535;23;20459;-78
2022/08/29 15:23:40;;;;;;;1.43;0.80;;;27.90;57.50;;;;;;6076079;23;20419;-78
2022/08/29 15:26:08;;;;;;;1.43;0.80;;;27.90;57.60;;;;;;6067154;23;20454;-79
2022/08/29 15:28:35;;;;;;;1.47;0.80;;;28.00;57.20;;;;;;6063461;23;20776;-76
2022/08/29 15:31:04;;;;;;;1.43;0.80;;;28.10;57.40;;;;;;6052811;23;20415;-77
2022/08/29 15:33:36;;;;;;;1.43;0.80;;;28.20;57.90;;;;;;6084322;23;20437;-75
2022/08/29 15:36:04;;;;;;;1.43;0.80;;;28.20;57.70;;;;;;6057307;23;20462;-76
2022/08/29 15:38:33;;;;;;;1.47;0.80;;;28.20;55.70;;;;;;6090826;23;20423;-75
2022/08/29 15:41:00;;;;;;;1.50;1.00;;;28.00;56.80;;;;;;6057414;23;20866;-76
2022/08/29 15:43:28;;;;;;;1.47;0.80;;;27.90;57.30;;;;;;6082978;23;20423;-74
2022/08/29 15:45:56;;;;;;;1.40;0.80;;;27.80;57.30;;;;;;6063389;23;20462;-76
2022/08/29 15:48:23;;;;;;;1.40;0.80;;;27.70;57.90;;;;;;6062390;23;20455;-74
2022/08/29 15:50:51;;;;;;;1.47;0.80;;;27.60;58.20;;;;;;6048807;23;20427;-76
2022/08/29 15:53:19;;;;;;;1.50;0.90;;;27.60;58.50;;;;;;6083806;23;20489;-75
2022/08/29 15:55:48;;;;;;;1.40;0.80;;;27.60;57.70;;;;;;6066499;23;20430;-76
2022/08/29 15:58:16;;;;;;;1.47;0.80;;;27.50;58.50;;;;;;6086276;23;20482;-76
2022/08/29 16:00:44;;;;;;;1.40;0.80;;;27.40;58.20;;;;;;6074421;23;20494;-75
2022/08/29 16:03:18;;;;;;;1.43;0.80;;;27.30;59.70;;;;;;6098769;23;20433;-74
2022/08/29 16:05:45;;;;;;;1.80;1.57;;;27.30;59.80;;;;;;6102296;23;20398;-75
2022/08/29 16:08:14;;;;;;;1.43;0.90;;;27.30;59.10;;;;;;6098868;23;20457;-74